sensor_id;sensor_type;location;lat;lon;timestamp;temperature;humidity
21770;DHT22;11046;49.558;8.674;2023-08-06T00:00:00;16.10;99.80
21770;DHT22;11046;49.558;8.674;2023-08-06T00:03:01;16.10;99.80
21770;DHT22;11046;49.558;8.674;2023-08-06T00:06:02;16.00;99.90
21770;DHT22;11046;49.558;8.674;2023-08-06T00:09:02;16.00;99.90
21770;DHT22;11046;49.558;8.674;2023-08-06T00:12:03;15.90;99.90
21770;DHT22;11046;49.558;8.674;2023-08-06T00:15:04;16.00;99.90
21770;DHT22;11046;49.558;8.674;2023-08-06T00:18:05;16.00;99.90
21770;DHT22;11046;49.558;8.674;2023-08-06T00:21:05;16.10;99.90
21770;DHT22;11046;49.558;8.674;2023-08-06T00:24:06;16.10;99.90
21770;DHT22;11046;49.558;8.674;2023-08-06T00:27:07;16.10;99.90
21770;DHT22;11046;49.558;8.674;2023-08-06T00:30:08;16.10;99.90
21770;DHT22;11046;49.558;8.674;2023-08-06T00:33:08;16.10;99.90
21770;DHT22;11046;49.558;8.674;2023-08-06T00:36:09;16.10;99.90
21770;DHT22;11046;49.558;8.674;2023-08-06T00:39:09;16.10;99.90
21770;DHT22;11046;49.558;8.674;2023-08-06T00:42:11;16.00;99.90
21770;DHT22;11046;49.558;8.674;2023-08-06T00:45:12;16.00;99.90
21770;DHT22;11046;49.558;8.674;2023-08-06T00:48:13;16.10;99.90
21770;DHT22;11046;49.558;8.674;2023-08-06T00:51:14;16.10;99.90
21770;DHT22;11046;49.558;8.674;2023-08-06T00:54:16;16.10;99.90
21770;DHT22;11046;49.558;8.674;2023-08-06T00:57:16;16.20;99.90
21770;DHT22;11046;49.558;8.674;2023-08-06T01:00:17;16.20;99.90
21770;DHT22;11046;49.558;8.674;2023-08-06T01:03:18;16.20;99.90
21770;DHT22;11046;49.558;8.674;2023-08-06T01:07:00;16.20;99.90
21770;DHT22;11046;49.558;8.674;2023-08-06T01:13:49;16.20;99.80
21770;DHT22;11046;49.558;8.674;2023-08-06T01:16:54;16.20;99.80
21770;DHT22;11046;49.558;8.674;2023-08-06T01:19:56;16.30;99.70
21770;DHT22;11046;49.558;8.674;2023-08-06T01:22:56;16.30;99.70
21770;DHT22;11046;49.558;8.674;2023-08-06T01:26:24;16.30;99.60
21770;DHT22;11046;49.558;8.674;2023-08-06T01:29:35;16.30;99.50
21770;DHT22;11046;49.558;8.674;2023-08-06T01:32:40;16.30;99.40
21770;DHT22;11046;49.558;8.674;2023-08-06T01:35:42;16.30;99.30
21770;DHT22;11046;49.558;8.674;2023-08-06T01:38:43;16.40;99.30
21770;DHT22;11046;49.558;8.674;2023-08-06T01:41:44;16.40;99.20
21770;DHT22;11046;49.558;8.674;2023-08-06T01:44:44;16.40;99.20
21770;DHT22;11046;49.558;8.674;2023-08-06T01:47:45;16.40;99.20
21770;DHT22;11046;49.558;8.674;2023-08-06T01:50:45;16.40;99.20
21770;DHT22;11046;49.558;8.674;2023-08-06T01:53:46;16.40;99.10
21770;DHT22;11046;49.558;8.674;2023-08-06T01:56:47;16.40;99.10
21770;DHT22;11046;49.558;8.674;2023-08-06T01:59:48;16.40;99.00
21770;DHT22;11046;49.558;8.674;2023-08-06T02:02:48;16.50;99.00
21770;DHT22;11046;49.558;8.674;2023-08-06T02:05:49;16.40;99.00
21770;DHT22;11046;49.558;8.674;2023-08-06T02:08:50;16.40;98.90
21770;DHT22;11046;49.558;8.674;2023-08-06T02:11:50;16.40;98.90
21770;DHT22;11046;49.558;8.674;2023-08-06T02:14:51;16.40;99.00
21770;DHT22;11046;49.558;8.674;2023-08-06T02:17:52;16.40;99.00
21770;DHT22;11046;49.558;8.674;2023-08-06T02:20:59;16.40;98.90
21770;DHT22;11046;49.558;8.674;2023-08-06T02:24:00;16.40;99.00
21770;DHT22;11046;49.558;8.674;2023-08-06T02:27:01;16.40;98.90
21770;DHT22;11046;49.558;8.674;2023-08-06T02:30:02;16.50;98.90
21770;DHT22;11046;49.558;8.674;2023-08-06T02:33:04;16.50;98.90
21770;DHT22;11046;49.558;8.674;2023-08-06T02:36:04;16.40;98.90
21770;DHT22;11046;49.558;8.674;2023-08-06T02:39:05;16.40;99.00
21770;DHT22;11046;49.558;8.674;2023-08-06T02:42:07;16.40;98.90
21770;DHT22;11046;49.558;8.674;2023-08-06T02:45:08;16.40;98.90
21770;DHT22;11046;49.558;8.674;2023-08-06T02:48:09;16.40;98.90
21770;DHT22;11046;49.558;8.674;2023-08-06T02:51:09;16.40;99.00
21770;DHT22;11046;49.558;8.674;2023-08-06T02:54:10;16.30;99.10
21770;DHT22;11046;49.558;8.674;2023-08-06T02:57:11;16.20;99.10
21770;DHT22;11046;49.558;8.674;2023-08-06T03:00:12;16.20;99.20
21770;DHT22;11046;49.558;8.674;2023-08-06T03:03:13;16.20;99.20
21770;DHT22;11046;49.558;8.674;2023-08-06T03:06:20;16.20;99.20
21770;DHT22;11046;49.558;8.674;2023-08-06T03:09:24;16.10;99.30
21770;DHT22;11046;49.558;8.674;2023-08-06T03:12:26;16.10;99.30
21770;DHT22;11046;49.558;8.674;2023-08-06T03:15:27;16.00;99.40
21770;DHT22;11046;49.558;8.674;2023-08-06T03:18:28;15.90;99.60
21770;DHT22;11046;49.558;8.674;2023-08-06T03:21:31;15.90;99.60
21770;DHT22;11046;49.558;8.674;2023-08-06T03:24:33;15.90;99.70
21770;DHT22;11046;49.558;8.674;2023-08-06T03:27:34;15.80;99.80
21770;DHT22;11046;49.558;8.674;2023-08-06T03:30:36;15.80;99.90
21770;DHT22;11046;49.558;8.674;2023-08-06T03:33:37;15.90;99.90
21770;DHT22;11046;49.558;8.674;2023-08-06T03:36:42;15.80;99.90
21770;DHT22;11046;49.558;8.674;2023-08-06T03:39:42;15.80;99.90
21770;DHT22;11046;49.558;8.674;2023-08-06T03:42:43;15.80;99.90
21770;DHT22;11046;49.558;8.674;2023-08-06T03:45:44;15.90;99.90
21770;DHT22;11046;49.558;8.674;2023-08-06T03:48:45;15.90;99.90
21770;DHT22;11046;49.558;8.674;2023-08-06T03:51:46;15.90;99.90
21770;DHT22;11046;49.558;8.674;2023-08-06T03:54:47;15.90;99.90
21770;DHT22;11046;49.558;8.674;2023-08-06T03:57:48;15.90;99.90
21770;DHT22;11046;49.558;8.674;2023-08-06T04:00:58;15.90;99.90
21770;DHT22;11046;49.558;8.674;2023-08-06T04:03:59;15.90;99.90
21770;DHT22;11046;49.558;8.674;2023-08-06T04:07:00;15.90;99.90
21770;DHT22;11046;49.558;8.674;2023-08-06T04:10:03;15.90;99.90
21770;DHT22;11046;49.558;8.674;2023-08-06T04:13:05;15.90;99.90
21770;DHT22;11046;49.558;8.674;2023-08-06T04:16:05;15.90;99.90
21770;DHT22;11046;49.558;8.674;2023-08-06T04:19:07;15.80;99.90
21770;DHT22;11046;49.558;8.674;2023-08-06T04:22:08;15.90;99.90
21770;DHT22;11046;49.558;8.674;2023-08-06T04:25:09;15.80;99.90
21770;DHT22;11046;49.558;8.674;2023-08-06T04:28:09;15.80;99.90
21770;DHT22;11046;49.558;8.674;2023-08-06T04:31:10;15.80;99.90
21770;DHT22;11046;49.558;8.674;2023-08-06T04:34:13;15.70;99.90
21770;DHT22;11046;49.558;8.674;2023-08-06T04:37:14;15.80;99.90
21770;DHT22;11046;49.558;8.674;2023-08-06T04:40:15;15.80;99.90
21770;DHT22;11046;49.558;8.674;2023-08-06T04:43:15;15.70;99.90
21770;DHT22;11046;49.558;8.674;2023-08-06T04:46:16;15.70;99.90
21770;DHT22;11046;49.558;8.674;2023-08-06T04:49:17;15.60;99.90
21770;DHT22;11046;49.558;8.674;2023-08-06T04:52:18;15.50;99.90
21770;DHT22;11046;49.558;8.674;2023-08-06T04:55:18;15.50;99.90
21770;DHT22;11046;49.558;8.674;2023-08-06T04:58:19;15.50;99.90
21770;DHT22;11046;49.558;8.674;2023-08-06T05:01:19;15.40;99.90
21770;DHT22;11046;49.558;8.674;2023-08-06T05:04:20;15.40;99.90
21770;DHT22;11046;49.558;8.674;2023-08-06T05:07:21;15.40;99.90
21770;DHT22;11046;49.558;8.674;2023-08-06T05:10:21;15.40;99.90
21770;DHT22;11046;49.558;8.674;2023-08-06T05:13:22;15.40;99.90
21770;DHT22;11046;49.558;8.674;2023-08-06T05:16:23;15.40;99.90
21770;DHT22;11046;49.558;8.674;2023-08-06T05:19:24;15.40;99.90
21770;DHT22;11046;49.558;8.674;2023-08-06T05:22:24;15.30;99.90
21770;DHT22;11046;49.558;8.674;2023-08-06T05:25:25;15.40;99.90
21770;DHT22;11046;49.558;8.674;2023-08-06T05:28:25;15.40;99.90
21770;DHT22;11046;49.558;8.674;2023-08-06T05:31:26;15.30;99.90
21770;DHT22;11046;49.558;8.674;2023-08-06T05:34:29;15.20;99.90
21770;DHT22;11046;49.558;8.674;2023-08-06T05:37:30;15.10;99.90
21770;DHT22;11046;49.558;8.674;2023-08-06T05:40:33;15.00;99.90
21770;DHT22;11046;49.558;8.674;2023-08-06T05:43:34;14.90;99.90
21770;DHT22;11046;49.558;8.674;2023-08-06T05:46:34;14.80;99.90
21770;DHT22;11046;49.558;8.674;2023-08-06T05:49:35;14.80;99.90
21770;DHT22;11046;49.558;8.674;2023-08-06T05:52:36;14.70;99.90
21770;DHT22;11046;49.558;8.674;2023-08-06T05:55:39;14.70;99.90
21770;DHT22;11046;49.558;8.674;2023-08-06T05:58:39;14.60;99.90
21770;DHT22;11046;49.558;8.674;2023-08-06T06:01:40;14.60;99.90
21770;DHT22;11046;49.558;8.674;2023-08-06T06:04:40;14.60;99.90
21770;DHT22;11046;49.558;8.674;2023-08-06T06:07:41;14.50;99.90
21770;DHT22;11046;49.558;8.674;2023-08-06T06:10:42;14.60;99.90
21770;DHT22;11046;49.558;8.674;2023-08-06T06:13:42;14.60;99.90
21770;DHT22;11046;49.558;8.674;2023-08-06T06:16:43;14.60;99.90
21770;DHT22;11046;49.558;8.674;2023-08-06T06:19:43;14.70;99.90
21770;DHT22;11046;49.558;8.674;2023-08-06T06:22:44;14.60;99.90
21770;DHT22;11046;49.558;8.674;2023-08-06T06:25:51;14.60;99.90
21770;DHT22;11046;49.558;8.674;2023-08-06T06:28:54;14.70;99.90
21770;DHT22;11046;49.558;8.674;2023-08-06T06:31:54;14.70;99.90
21770;DHT22;11046;49.558;8.674;2023-08-06T06:34:55;14.60;99.90
21770;DHT22;11046;49.558;8.674;2023-08-06T06:37:56;14.70;99.90
21770;DHT22;11046;49.558;8.674;2023-08-06T06:40:56;14.70;99.90
21770;DHT22;11046;49.558;8.674;2023-08-06T06:44:01;14.70;99.90
21770;DHT22;11046;49.558;8.674;2023-08-06T06:47:06;14.70;99.90
21770;DHT22;11046;49.558;8.674;2023-08-06T06:50:07;14.70;99.90
21770;DHT22;11046;49.558;8.674;2023-08-06T06:53:07;14.70;99.90
21770;DHT22;11046;49.558;8.674;2023-08-06T06:56:08;14.60;99.90
21770;DHT22;11046;49.558;8.674;2023-08-06T06:59:09;14.70;99.90
21770;DHT22;11046;49.558;8.674;2023-08-06T07:02:09;14.60;99.90
21770;DHT22;11046;49.558;8.674;2023-08-06T07:05:10;14.70;99.90
21770;DHT22;11046;49.558;8.674;2023-08-06T07:08:11;14.70;99.90
21770;DHT22;11046;49.558;8.674;2023-08-06T07:11:11;14.70;99.90
21770;DHT22;11046;49.558;8.674;2023-08-06T07:14:12;14.70;99.90
21770;DHT22;11046;49.558;8.674;2023-08-06T07:17:14;14.70;99.90
21770;DHT22;11046;49.558;8.674;2023-08-06T07:20:15;14.70;99.90
21770;DHT22;11046;49.558;8.674;2023-08-06T07:23:16;14.70;99.90
21770;DHT22;11046;49.558;8.674;2023-08-06T07:26:17;14.70;99.90
21770;DHT22;11046;49.558;8.674;2023-08-06T07:29:18;14.80;99.90
21770;DHT22;11046;49.558;8.674;2023-08-06T07:32:21;15.00;99.90
21770;DHT22;11046;49.558;8.674;2023-08-06T07:35:22;15.00;99.90
21770;DHT22;11046;49.558;8.674;2023-08-06T07:38:23;15.10;99.90
21770;DHT22;11046;49.558;8.674;2023-08-06T07:41:23;15.20;99.90
21770;DHT22;11046;49.558;8.674;2023-08-06T07:44:24;15.20;99.90
21770;DHT22;11046;49.558;8.674;2023-08-06T07:47:25;15.30;99.90
21770;DHT22;11046;49.558;8.674;2023-08-06T07:50:25;15.40;99.90
21770;DHT22;11046;49.558;8.674;2023-08-06T07:53:26;15.50;99.90
21770;DHT22;11046;49.558;8.674;2023-08-06T07:56:28;15.40;99.90
21770;DHT22;11046;49.558;8.674;2023-08-06T07:59:29;15.50;99.90
21770;DHT22;11046;49.558;8.674;2023-08-06T08:02:29;15.50;99.90
21770;DHT22;11046;49.558;8.674;2023-08-06T08:05:30;15.50;99.90
21770;DHT22;11046;49.558;8.674;2023-08-06T08:08:31;15.50;99.90
21770;DHT22;11046;49.558;8.674;2023-08-06T08:11:31;15.40;99.90
21770;DHT22;11046;49.558;8.674;2023-08-06T08:14:32;15.40;99.90
21770;DHT22;11046;49.558;8.674;2023-08-06T08:17:36;15.40;99.90
21770;DHT22;11046;49.558;8.674;2023-08-06T08:20:36;15.40;99.90
21770;DHT22;11046;49.558;8.674;2023-08-06T08:23:37;15.30;99.90
21770;DHT22;11046;49.558;8.674;2023-08-06T08:26:39;15.30;99.90
21770;DHT22;11046;49.558;8.674;2023-08-06T08:29:39;15.30;99.90
21770;DHT22;11046;49.558;8.674;2023-08-06T08:32:40;15.40;99.90
21770;DHT22;11046;49.558;8.674;2023-08-06T08:35:40;15.70;99.90
21770;DHT22;11046;49.558;8.674;2023-08-06T08:38:41;15.80;99.90
21770;DHT22;11046;49.558;8.674;2023-08-06T08:41:42;16.00;99.90
21770;DHT22;11046;49.558;8.674;2023-08-06T08:44:43;16.20;99.90
21770;DHT22;11046;49.558;8.674;2023-08-06T08:47:44;16.30;99.90
21770;DHT22;11046;49.558;8.674;2023-08-06T08:50:48;16.40;99.90
21770;DHT22;11046;49.558;8.674;2023-08-06T08:53:49;16.40;99.90
21770;DHT22;11046;49.558;8.674;2023-08-06T08:56:53;16.40;99.90
21770;DHT22;11046;49.558;8.674;2023-08-06T08:59:55;16.40;99.90
21770;DHT22;11046;49.558;8.674;2023-08-06T09:02:57;16.30;99.90
21770;DHT22;11046;49.558;8.674;2023-08-06T09:06:02;16.30;99.90
21770;DHT22;11046;49.558;8.674;2023-08-06T09:09:09;16.30;99.90
21770;DHT22;11046;49.558;8.674;2023-08-06T09:12:14;16.30;99.90
21770;DHT22;11046;49.558;8.674;2023-08-06T09:15:15;16.50;99.90
21770;DHT22;11046;49.558;8.674;2023-08-06T09:18:28;16.60;99.90
21770;DHT22;11046;49.558;8.674;2023-08-06T09:21:29;16.60;99.90
21770;DHT22;11046;49.558;8.674;2023-08-06T09:24:30;16.60;99.90
21770;DHT22;11046;49.558;8.674;2023-08-06T09:27:30;16.70;99.90
21770;DHT22;11046;49.558;8.674;2023-08-06T09:30:33;16.70;99.90
21770;DHT22;11046;49.558;8.674;2023-08-06T09:33:36;16.70;99.90
21770;DHT22;11046;49.558;8.674;2023-08-06T09:36:40;16.60;99.90
21770;DHT22;11046;49.558;8.674;2023-08-06T09:39:41;16.60;99.90
21770;DHT22;11046;49.558;8.674;2023-08-06T09:42:42;16.40;99.90
21770;DHT22;11046;49.558;8.674;2023-08-06T09:45:43;16.40;99.90
21770;DHT22;11046;49.558;8.674;2023-08-06T09:48:46;16.50;99.90
21770;DHT22;11046;49.558;8.674;2023-08-06T09:51:47;16.60;99.90
21770;DHT22;11046;49.558;8.674;2023-08-06T09:54:53;16.90;99.90
21770;DHT22;11046;49.558;8.674;2023-08-06T09:57:55;17.20;99.90
21770;DHT22;11046;49.558;8.674;2023-08-06T10:00:56;17.40;99.90
21770;DHT22;11046;49.558;8.674;2023-08-06T10:03:57;17.30;99.90
21770;DHT22;11046;49.558;8.674;2023-08-06T10:06:59;17.20;99.90
21770;DHT22;11046;49.558;8.674;2023-08-06T10:10:00;17.10;99.90
21770;DHT22;11046;49.558;8.674;2023-08-06T10:13:03;16.80;99.90
21770;DHT22;11046;49.558;8.674;2023-08-06T10:16:05;16.70;99.90
21770;DHT22;11046;49.558;8.674;2023-08-06T10:19:09;16.60;99.90
21770;DHT22;11046;49.558;8.674;2023-08-06T10:22:14;16.70;99.90
21770;DHT22;11046;49.558;8.674;2023-08-06T10:25:18;16.70;99.90
21770;DHT22;11046;49.558;8.674;2023-08-06T10:28:19;16.80;99.90
21770;DHT22;11046;49.558;8.674;2023-08-06T10:31:20;16.80;99.90
21770;DHT22;11046;49.558;8.674;2023-08-06T10:34:21;16.70;99.90
21770;DHT22;11046;49.558;8.674;2023-08-06T10:37:21;16.70;99.90
21770;DHT22;11046;49.558;8.674;2023-08-06T10:40:23;16.50;99.90
21770;DHT22;11046;49.558;8.674;2023-08-06T10:43:36;16.30;99.90
21770;DHT22;11046;49.558;8.674;2023-08-06T10:46:38;16.10;99.90
21770;DHT22;11046;49.558;8.674;2023-08-06T10:49:39;16.00;99.90
21770;DHT22;11046;49.558;8.674;2023-08-06T10:52:40;15.90;99.90
21770;DHT22;11046;49.558;8.674;2023-08-06T10:55:40;15.90;99.90
21770;DHT22;11046;49.558;8.674;2023-08-06T10:58:42;15.90;99.90
21770;DHT22;11046;49.558;8.674;2023-08-06T11:01:43;15.90;99.90
21770;DHT22;11046;49.558;8.674;2023-08-06T11:04:43;15.80;99.90
21770;DHT22;11046;49.558;8.674;2023-08-06T11:07:44;15.80;99.90
21770;DHT22;11046;49.558;8.674;2023-08-06T11:10:45;15.80;99.90
21770;DHT22;11046;49.558;8.674;2023-08-06T11:13:47;15.70;99.90
21770;DHT22;11046;49.558;8.674;2023-08-06T11:16:48;15.60;99.90
21770;DHT22;11046;49.558;8.674;2023-08-06T11:19:49;15.60;99.90
21770;DHT22;11046;49.558;8.674;2023-08-06T11:22:50;15.60;99.90
21770;DHT22;11046;49.558;8.674;2023-08-06T11:25:50;15.60;99.90
21770;DHT22;11046;49.558;8.674;2023-08-06T11:28:53;15.60;99.90
21770;DHT22;11046;49.558;8.674;2023-08-06T11:32:03;15.60;99.90
21770;DHT22;11046;49.558;8.674;2023-08-06T11:35:10;15.70;99.90
21770;DHT22;11046;49.558;8.674;2023-08-06T11:38:13;15.70;99.90
21770;DHT22;11046;49.558;8.674;2023-08-06T11:41:14;15.70;99.90
21770;DHT22;11046;49.558;8.674;2023-08-06T11:44:14;15.80;99.90
21770;DHT22;11046;49.558;8.674;2023-08-06T11:47:17;15.90;99.90
21770;DHT22;11046;49.558;8.674;2023-08-06T11:50:25;16.00;99.90
21770;DHT22;11046;49.558;8.674;2023-08-06T11:53:27;16.00;99.90
21770;DHT22;11046;49.558;8.674;2023-08-06T11:56:30;16.10;99.90
21770;DHT22;11046;49.558;8.674;2023-08-06T11:59:31;16.10;99.90
21770;DHT22;11046;49.558;8.674;2023-08-06T12:02:32;16.10;99.90
21770;DHT22;11046;49.558;8.674;2023-08-06T12:05:37;16.10;99.90
21770;DHT22;11046;49.558;8.674;2023-08-06T12:08:39;16.00;99.90
21770;DHT22;11046;49.558;8.674;2023-08-06T12:11:42;16.00;99.90
21770;DHT22;11046;49.558;8.674;2023-08-06T12:14:42;16.00;99.90
21770;DHT22;11046;49.558;8.674;2023-08-06T12:17:43;16.10;99.90
21770;DHT22;11046;49.558;8.674;2023-08-06T12:20:43;16.00;99.90
21770;DHT22;11046;49.558;8.674;2023-08-06T12:23:44;16.10;99.90
21770;DHT22;11046;49.558;8.674;2023-08-06T12:26:45;16.20;99.90
21770;DHT22;11046;49.558;8.674;2023-08-06T12:29:47;16.30;99.90
21770;DHT22;11046;49.558;8.674;2023-08-06T12:32:48;16.30;99.90
21770;DHT22;11046;49.558;8.674;2023-08-06T12:35:49;16.40;99.90
21770;DHT22;11046;49.558;8.674;2023-08-06T12:38:50;16.40;99.90
21770;DHT22;11046;49.558;8.674;2023-08-06T12:41:50;16.50;99.90
21770;DHT22;11046;49.558;8.674;2023-08-06T12:44:51;16.50;99.90
21770;DHT22;11046;49.558;8.674;2023-08-06T12:47:52;16.50;99.90
21770;DHT22;11046;49.558;8.674;2023-08-06T12:50:52;16.50;99.90
21770;DHT22;11046;49.558;8.674;2023-08-06T12:53:53;16.50;99.90
21770;DHT22;11046;49.558;8.674;2023-08-06T12:56:54;16.50;99.90
21770;DHT22;11046;49.558;8.674;2023-08-06T12:59:55;16.50;99.90
21770;DHT22;11046;49.558;8.674;2023-08-06T13:02:55;16.50;99.90
21770;DHT22;11046;49.558;8.674;2023-08-06T13:05:56;16.50;99.90
21770;DHT22;11046;49.558;8.674;2023-08-06T13:08:58;16.60;99.90
21770;DHT22;11046;49.558;8.674;2023-08-06T13:11:59;16.60;99.90
21770;DHT22;11046;49.558;8.674;2023-08-06T13:15:00;16.60;99.90
21770;DHT22;11046;49.558;8.674;2023-08-06T13:18:01;16.50;99.90
21770;DHT22;11046;49.558;8.674;2023-08-06T13:21:01;16.40;99.90
21770;DHT22;11046;49.558;8.674;2023-08-06T13:24:02;16.10;99.90
21770;DHT22;11046;49.558;8.674;2023-08-06T13:27:03;16.10;99.90
21770;DHT22;11046;49.558;8.674;2023-08-06T13:30:04;16.10;99.90
21770;DHT22;11046;49.558;8.674;2023-08-06T13:33:04;16.20;99.90
21770;DHT22;11046;49.558;8.674;2023-08-06T13:36:06;16.20;99.90
21770;DHT22;11046;49.558;8.674;2023-08-06T13:39:07;16.20;99.90
21770;DHT22;11046;49.558;8.674;2023-08-06T13:42:07;16.20;99.90
21770;DHT22;11046;49.558;8.674;2023-08-06T13:45:09;16.20;99.90
21770;DHT22;11046;49.558;8.674;2023-08-06T13:48:10;16.20;99.90
21770;DHT22;11046;49.558;8.674;2023-08-06T13:51:11;16.10;99.90
21770;DHT22;11046;49.558;8.674;2023-08-06T13:54:12;16.20;99.90
21770;DHT22;11046;49.558;8.674;2023-08-06T13:57:13;16.10;99.90
21770;DHT22;11046;49.558;8.674;2023-08-06T14:00:13;16.00;99.90
21770;DHT22;11046;49.558;8.674;2023-08-06T14:03:14;16.00;99.90
21770;DHT22;11046;49.558;8.674;2023-08-06T14:06:14;16.10;99.90
21770;DHT22;11046;49.558;8.674;2023-08-06T14:09:15;16.20;99.90
21770;DHT22;11046;49.558;8.674;2023-08-06T14:12:18;16.20;99.90
21770;DHT22;11046;49.558;8.674;2023-08-06T14:15:19;16.20;99.90
21770;DHT22;11046;49.558;8.674;2023-08-06T14:18:20;16.20;99.90
21770;DHT22;11046;49.558;8.674;2023-08-06T14:21:20;16.20;99.90
21770;DHT22;11046;49.558;8.674;2023-08-06T14:24:21;16.20;99.90
21770;DHT22;11046;49.558;8.674;2023-08-06T14:27:22;16.20;99.90
21770;DHT22;11046;49.558;8.674;2023-08-06T14:30:23;16.20;99.90
21770;DHT22;11046;49.558;8.674;2023-08-06T14:33:23;16.10;99.90
21770;DHT22;11046;49.558;8.674;2023-08-06T14:36:25;16.00;99.90
21770;DHT22;11046;49.558;8.674;2023-08-06T14:39:26;16.10;99.90
21770;DHT22;11046;49.558;8.674;2023-08-06T14:42:26;16.10;99.90
21770;DHT22;11046;49.558;8.674;2023-08-06T14:45:27;16.10;99.90
21770;DHT22;11046;49.558;8.674;2023-08-06T14:48:28;16.10;99.90
21770;DHT22;11046;49.558;8.674;2023-08-06T14:51:28;16.10;99.90
21770;DHT22;11046;49.558;8.674;2023-08-06T14:54:29;16.20;99.90
21770;DHT22;11046;49.558;8.674;2023-08-06T14:57:30;16.10;99.90
21770;DHT22;11046;49.558;8.674;2023-08-06T15:00:31;16.00;99.90
21770;DHT22;11046;49.558;8.674;2023-08-06T15:03:32;16.10;99.90
21770;DHT22;11046;49.558;8.674;2023-08-06T15:06:33;16.00;99.90
21770;DHT22;11046;49.558;8.674;2023-08-06T15:09:34;16.00;99.90
21770;DHT22;11046;49.558;8.674;2023-08-06T15:12:35;16.00;99.90
21770;DHT22;11046;49.558;8.674;2023-08-06T15:15:36;16.00;99.90
21770;DHT22;11046;49.558;8.674;2023-08-06T15:18:36;15.90;99.90
21770;DHT22;11046;49.558;8.674;2023-08-06T15:21:37;15.90;99.90
21770;DHT22;11046;49.558;8.674;2023-08-06T15:24:37;15.90;99.90
21770;DHT22;11046;49.558;8.674;2023-08-06T15:27:42;16.00;99.90
21770;DHT22;11046;49.558;8.674;2023-08-06T15:30:49;16.00;99.90
21770;DHT22;11046;49.558;8.674;2023-08-06T15:33:49;15.90;99.90
21770;DHT22;11046;49.558;8.674;2023-08-06T15:36:50;16.00;99.90
21770;DHT22;11046;49.558;8.674;2023-08-06T15:39:51;16.10;99.90
21770;DHT22;11046;49.558;8.674;2023-08-06T15:42:52;16.00;99.90
21770;DHT22;11046;49.558;8.674;2023-08-06T15:45:52;16.00;99.90
21770;DHT22;11046;49.558;8.674;2023-08-06T15:48:53;16.00;99.90
21770;DHT22;11046;49.558;8.674;2023-08-06T15:51:54;16.00;99.90
21770;DHT22;11046;49.558;8.674;2023-08-06T15:54:54;15.90;99.90
21770;DHT22;11046;49.558;8.674;2023-08-06T15:57:55;15.90;99.90
21770;DHT22;11046;49.558;8.674;2023-08-06T16:00:55;15.80;99.90
21770;DHT22;11046;49.558;8.674;2023-08-06T16:03:56;15.70;99.90
21770;DHT22;11046;49.558;8.674;2023-08-06T16:06:57;15.60;99.90
21770;DHT22;11046;49.558;8.674;2023-08-06T16:09:58;15.50;99.90
21770;DHT22;11046;49.558;8.674;2023-08-06T16:12:59;15.50;99.90
21770;DHT22;11046;49.558;8.674;2023-08-06T16:15:59;15.50;99.90
21770;DHT22;11046;49.558;8.674;2023-08-06T16:19:01;15.50;99.90
21770;DHT22;11046;49.558;8.674;2023-08-06T16:22:02;15.50;99.90
21770;DHT22;11046;49.558;8.674;2023-08-06T16:25:03;15.50;99.90
21770;DHT22;11046;49.558;8.674;2023-08-06T16:28:04;15.50;99.90
21770;DHT22;11046;49.558;8.674;2023-08-06T16:31:05;15.50;99.90
21770;DHT22;11046;49.558;8.674;2023-08-06T16:34:05;15.50;99.90
21770;DHT22;11046;49.558;8.674;2023-08-06T16:37:06;15.50;99.90
21770;DHT22;11046;49.558;8.674;2023-08-06T16:40:07;15.60;99.90
21770;DHT22;11046;49.558;8.674;2023-08-06T16:43:09;15.60;99.90
21770;DHT22;11046;49.558;8.674;2023-08-06T16:46:10;15.60;99.90
21770;DHT22;11046;49.558;8.674;2023-08-06T16:49:10;15.70;99.90
21770;DHT22;11046;49.558;8.674;2023-08-06T16:52:11;15.70;99.90
21770;DHT22;11046;49.558;8.674;2023-08-06T16:55:12;15.60;99.90
21770;DHT22;11046;49.558;8.674;2023-08-06T16:58:14;15.60;99.90
21770;DHT22;11046;49.558;8.674;2023-08-06T17:01:15;15.50;99.90
21770;DHT22;11046;49.558;8.674;2023-08-06T17:04:16;15.50;99.90
21770;DHT22;11046;49.558;8.674;2023-08-06T17:07:16;15.50;99.90
21770;DHT22;11046;49.558;8.674;2023-08-06T17:10:17;15.30;99.90
21770;DHT22;11046;49.558;8.674;2023-08-06T17:13:20;15.30;99.90
21770;DHT22;11046;49.558;8.674;2023-08-06T17:16:21;15.10;99.90
21770;DHT22;11046;49.558;8.674;2023-08-06T17:19:21;15.00;99.90
21770;DHT22;11046;49.558;8.674;2023-08-06T17:22:22;15.00;99.90
21770;DHT22;11046;49.558;8.674;2023-08-06T17:25:23;15.00;99.90
21770;DHT22;11046;49.558;8.674;2023-08-06T17:28:24;14.90;99.90
21770;DHT22;11046;49.558;8.674;2023-08-06T17:31:25;14.80;99.90
21770;DHT22;11046;49.558;8.674;2023-08-06T17:34:25;14.90;99.90
21770;DHT22;11046;49.558;8.674;2023-08-06T17:37:28;14.90;99.90
21770;DHT22;11046;49.558;8.674;2023-08-06T17:40:29;14.90;99.90
21770;DHT22;11046;49.558;8.674;2023-08-06T17:43:29;14.80;99.90
21770;DHT22;11046;49.558;8.674;2023-08-06T17:46:30;14.80;99.90
21770;DHT22;11046;49.558;8.674;2023-08-06T17:49:31;14.80;99.90
21770;DHT22;11046;49.558;8.674;2023-08-06T17:52:31;14.80;99.90
21770;DHT22;11046;49.558;8.674;2023-08-06T17:55:32;14.90;99.90
21770;DHT22;11046;49.558;8.674;2023-08-06T17:58:32;15.00;99.90
21770;DHT22;11046;49.558;8.674;2023-08-06T18:01:33;14.90;99.90
21770;DHT22;11046;49.558;8.674;2023-08-06T18:04:34;14.90;99.90
21770;DHT22;11046;49.558;8.674;2023-08-06T18:07:34;14.90;99.90
21770;DHT22;11046;49.558;8.674;2023-08-06T18:10:36;14.90;99.90
21770;DHT22;11046;49.558;8.674;2023-08-06T18:13:37;14.90;99.90
21770;DHT22;11046;49.558;8.674;2023-08-06T18:16:38;14.90;99.90
21770;DHT22;11046;49.558;8.674;2023-08-06T18:19:38;15.00;99.90
21770;DHT22;11046;49.558;8.674;2023-08-06T18:22:39;14.90;99.90
21770;DHT22;11046;49.558;8.674;2023-08-06T18:25:40;15.00;99.90
21770;DHT22;11046;49.558;8.674;2023-08-06T18:28:40;14.90;99.90
21770;DHT22;11046;49.558;8.674;2023-08-06T18:31:44;14.90;99.90
21770;DHT22;11046;49.558;8.674;2023-08-06T18:34:45;14.90;99.90
21770;DHT22;11046;49.558;8.674;2023-08-06T18:37:45;14.90;99.90
21770;DHT22;11046;49.558;8.674;2023-08-06T18:40:46;15.00;99.90
21770;DHT22;11046;49.558;8.674;2023-08-06T18:43:47;15.00;99.90
21770;DHT22;11046;49.558;8.674;2023-08-06T18:46:48;14.90;99.90
21770;DHT22;11046;49.558;8.674;2023-08-06T18:49:49;14.80;99.90
21770;DHT22;11046;49.558;8.674;2023-08-06T18:52:49;14.90;99.90
21770;DHT22;11046;49.558;8.674;2023-08-06T18:55:51;14.90;99.90
21770;DHT22;11046;49.558;8.674;2023-08-06T18:58:51;14.90;99.90
21770;DHT22;11046;49.558;8.674;2023-08-06T19:01:52;14.80;99.90
21770;DHT22;11046;49.558;8.674;2023-08-06T19:04:54;14.70;99.90
21770;DHT22;11046;49.558;8.674;2023-08-06T19:07:54;14.70;99.90